Time;durP1;ratioP1;P1;durP2;ratioP2;P2;SDS_P1;SDS_P2;PMS_P1;PMS_P2;Temp;Humidity;BMP_temperature;BMP_pressure;BME280_temperature;BME280_humidity;BME280_pressure;Samples;Min_cycle;Max_cycle;Signal;HPM_P1;HPM_P2
2022/09/05 00:02:00;;;;;;;6.88;6.22;;;;;;;19.60;65.42;95489.53;5012606;28;20221;-62
2022/09/05 00:04:26;;;;;;;6.10;5.63;;;;;;;19.61;65.82;95483.97;5003928;28;20240;-62
2022/09/05 00:07:17;;;;;;;7.40;6.80;;;;;;;19.51;66.71;95488.00;5003823;28;20253;-62
2022/09/05 00:10:04;;;;;;;7.95;7.05;;;;;;;19.50;66.10;95486.38;5010344;28;20227;-62
2022/09/05 00:12:32;;;;;;;7.97;7.28;;;;;;;19.45;65.54;95484.28;5007100;28;20223;-62
2022/09/05 00:15:19;;;;;;;7.68;6.97;;;;;;;19.46;65.88;95493.09;5007935;28;20219;-62
2022/09/05 00:17:53;;;;;;;8.13;7.50;;;;;;;19.39;66.51;95491.22;5005678;28;20636;-63
2022/09/05 00:20:35;;;;;;;9.43;8.52;;;;;;;19.37;67.47;95481.78;5008726;28;20234;-64
2022/09/05 00:23:19;;;;;;;8.98;7.95;;;;;;;19.31;66.90;95490.56;5008981;28;20315;-63
2022/09/05 00:25:56;;;;;;;8.85;8.25;;;;;;;19.28;66.37;95494.44;5005565;28;20215;-63
2022/09/05 00:28:34;;;;;;;9.00;8.20;;;;;;;19.25;66.03;95489.50;4998075;28;20904;-63
2022/09/05 00:31:31;;;;;;;9.43;8.50;;;;;;;19.26;66.30;95492.97;5011913;28;20227;-63
2022/09/05 00:34:08;;;;;;;9.40;8.60;;;;;;;19.34;65.50;95485.66;5003543;28;20328;-63
2022/09/05 00:36:54;;;;;;;9.63;8.75;;;;;;;19.21;66.54;95487.41;5012336;28;20225;-63
2022/09/05 00:39:25;;;;;;;9.85;9.02;;;;;;;19.17;65.75;95489.66;5005582;28;20222;-63
2022/09/05 00:41:56;;;;;;;9.27;8.57;;;;;;;19.17;66.31;95492.31;5007070;28;20281;-63
2022/09/05 00:44:25;;;;;;;9.43;8.73;;;;;;;19.07;66.19;95491.81;5006052;28;20288;-63
2022/09/05 00:47:00;;;;;;;10.63;9.52;;;;;;;19.09;65.91;95501.28;5008573;28;20242;-60
2022/09/05 00:49:39;;;;;;;10.10;9.30;;;;;;;18.97;65.49;95494.81;5028941;28;20304;-63
2022/09/05 00:52:29;;;;;;;9.43;8.73;;;;;;;19.06;65.34;95496.31;5020427;28;20238;-61
2022/09/05 00:55:10;;;;;;;9.25;8.40;;;;;;;19.12;65.75;95492.06;5008402;28;20231;-61
2022/09/05 00:57:59;;;;;;;9.90;9.07;;;;;;;19.05;65.97;95488.50;5000484;28;20305;-61
2022/09/05 01:00:44;;;;;;;9.07;8.18;;;;;;;18.97;65.59;95494.81;5008228;28;20230;-61
2022/09/05 01:03:24;;;;;;;7.55;6.95;;;;;;;19.00;64.83;95496.25;5008790;28;20226;-61
2022/09/05 01:06:27;;;;;;;9.20;8.45;;;;;;;19.13;64.70;95507.84;5006528;28;20714;-62
2022/09/05 01:09:18;;;;;;;8.05;7.35;;;;;;;19.09;64.54;95498.59;5007775;28;20229;-62
2022/09/05 01:12:17;;;;;;;8.20;7.50;;;;;;;19.00;64.42;95499.75;5005878;28;20223;-61
2022/09/05 01:14:59;;;;;;;7.88;7.38;;;;;;;18.94;64.06;95497.84;5003529;28;20242;-61
2022/09/05 01:18:01;;;;;;;8.00;7.40;;;;;;;19.01;64.12;95504.06;5020583;28;20233;-64
2022/09/05 01:20:27;;;;;;;8.00;7.40;;;;;;;19.01;63.96;95503.25;5026133;28;20218;-62
2022/09/05 01:22:58;;;;;;;7.55;7.00;;;;;;;18.94;64.06;95509.31;5019268;28;20283;-63
2022/09/05 01:25:32;;;;;;;8.07;7.43;;;;;;;18.85;64.13;95505.16;5016182;28;20261;-62
2022/09/05 01:27:58;;;;;;;10.05;7.70;;;;;;;18.99;64.04;95505.28;5011164;28;20317;-62
2022/09/05 01:30:55;;;;;;;8.38;7.78;;;;;;;18.69;65.27;95495.56;5014205;28;20309;-63
2022/09/05 01:34:06;;;;;;;7.97;7.18;;;;;;;18.85;64.49;95502.50;5014789;28;20261;-62
2022/09/05 01:36:56;;;;;;;7.63;7.00;;;;;;;19.04;63.93;95493.03;4936963;28;20239;-61
2022/09/05 01:39:43;;;;;;;8.13;7.50;;;;;;;19.04;63.79;95501.03;4937548;28;20332;-61
2022/09/05 01:42:30;;;;;;;7.78;7.28;;;;;;;18.97;63.84;95500.13;4954412;28;21035;-61
2022/09/05 01:45:05;;;;;;;7.70;7.00;;;;;;;18.72;64.60;95484.50;4951934;28;20244;-61
2022/09/05 01:48:06;;;;;;;7.22;6.72;;;;;;;18.91;63.98;95487.59;4935241;28;20228;-62
2022/09/05 01:50:56;;;;;;;7.38;6.70;;;;;;;18.93;63.68;95474.91;4894713;29;21009;-61
2022/09/05 01:53:45;;;;;;;7.63;6.78;;;;;;;18.88;63.74;95493.31;4893754;29;20235;-61
2022/09/05 01:56:48;;;;;;;8.13;6.60;;;;;;;18.82;63.63;95499.38;4893268;29;20211;-61
2022/09/05 01:59:24;;;;;;;6.97;6.30;;;;;;;18.81;63.54;95495.06;4881470;29;20215;-69
2022/09/05 02:02:11;;;;;;;7.10;6.57;;;;;;;18.91;63.06;95493.72;4893654;29;20220;-69
2022/09/05 02:05:04;;;;;;;9.38;6.88;;;;;;;18.93;62.74;95496.22;4891884;29;20266;-70
2022/09/05 02:08:03;;;;;;;7.05;6.40;;;;;;;18.82;63.54;95494.03;4893857;29;20321;-69
2022/09/05 02:10:47;;;;;;;7.22;6.53;;;;;;;18.81;63.34;95497.72;4894790;29;20302;-69
2022/09/05 02:13:34;;;;;;;6.90;6.40;;;;;;;18.77;63.49;95510.63;4929350;29;20249;-69
2022/09/05 02:16:27;;;;;;;7.93;7.15;;;;;;;18.67;63.46;95486.91;4933471;29;20216;-70
2022/09/05 02:18:57;;;;;;;6.47;5.97;;;;;;;18.75;63.40;95496.66;4936812;29;20257;-69
2022/09/05 02:21:28;;;;;;;6.95;6.32;;;;;;;18.75;63.15;95495.84;4931255;29;20271;-69
2022/09/05 02:24:07;;;;;;;6.53;6.13;;;;;;;18.75;62.98;95494.00;4934970;29;20221;-69
2022/09/05 02:26:51;;;;;;;7.35;6.80;;;;;;;18.75;62.99;95488.66;4959618;28;20222;-69
2022/09/05 02:29:26;;;;;;;7.25;6.65;;;;;;;18.76;62.68;95489.47;5007060;28;20231;-68
2022/09/05 02:32:00;;;;;;;7.35;6.60;;;;;;;18.80;62.24;95493.44;5006935;28;20221;-69
2022/09/05 02:34:47;;;;;;;6.72;6.13;;;;;;;18.78;62.42;95498.13;5010808;28;20242;-70
2022/09/05 02:37:26;;;;;;;6.28;5.78;;;;;;;18.80;61.49;95504.91;5006280;28;20226;-69
2022/09/05 02:39:58;;;;;;;6.05;5.50;;;;;;;18.81;61.13;95493.22;5005919;28;20231;-69
2022/09/05 02:42:28;;;;;;;6.60;6.00;;;;;;;18.69;61.32;95495.56;5011126;28;20643;-69
2022/09/05 02:44:59;;;;;;;6.93;6.40;;;;;;;18.69;61.21;95494.72;5009753;28;20222;-69
2022/09/05 02:47:35;;;;;;;6.35;5.80;;;;;;;18.65;61.43;95502.25;5017392;28;20230;-69
2022/09/05 02:50:09;;;;;;;6.03;5.53;;;;;;;18.75;61.43;95499.31;5012820;28;20606;-69
2022/09/05 02:52:39;;;;;;;5.20;4.80;;;;;;;18.73;61.29;95503.97;5013294;28;20225;-70
2022/09/05 02:55:23;;;;;;;5.47;5.07;;;;;;;18.79;60.49;95502.41;5011545;28;20238;-69
2022/09/05 02:58:15;;;;;;;5.65;5.15;;;;;;;18.69;60.88;95510.72;5011489;28;20230;-69
2022/09/05 03:00:52;;;;;;;5.82;5.13;;;;;;;18.77;60.75;95515.13;4976234;28;20223;-69
2022/09/05 03:03:26;;;;;;;6.95;4.80;;;;;;;18.70;61.00;95513.16;4964890;28;20232;-69
2022/09/05 03:06:03;;;;;;;5.10;4.70;;;;;;;18.68;61.32;95507.22;4960692;28;20316;-70
2022/09/05 03:09:22;;;;;;;5.30;4.82;;;;;;;18.72;60.93;95511.16;4957791;28;20720;-69
2022/09/05 03:12:00;;;;;;;5.38;4.88;;;;;;;18.63;61.21;95508.78;4931894;29;20230;-68
2022/09/05 03:14:55;;;;;;;4.85;4.45;;;;;;;18.67;61.03;95508.22;4938328;29;20225;-69
2022/09/05 03:17:23;;;;;;;4.88;4.47;;;;;;;18.67;61.15;95512.75;4913694;29;20250;-70
2022/09/05 03:20:16;;;;;;;6.82;5.03;;;;;;;18.62;61.05;95510.63;4933024;29;20270;-69
2022/09/05 03:23:17;;;;;;;5.30;4.43;;;;;;;18.50;61.57;95513.00;4936068;29;20237;-69
2022/09/05 03:26:15;;;;;;;5.43;4.43;;;;;;;18.59;60.77;95510.19;4919307;29;20256;-70
2022/09/05 03:28:59;;;;;;;4.70;4.30;;;;;;;18.54;60.26;95513.41;4878343;29;20227;-70
2022/09/05 03:31:56;;;;;;;5.55;4.95;;;;;;;18.48;60.62;95509.69;4876761;29;20235;-70
2022/09/05 03:34:39;;;;;;;5.00;4.60;;;;;;;18.63;60.18;95511.44;4870843;29;20263;-69
2022/09/05 03:37:43;;;;;;;5.35;4.85;;;;;;;18.63;59.95;95522.09;4872730;29;20243;-70
2022/09/05 03:40:47;;;;;;;4.35;3.95;;;;;;;18.52;59.55;95526.94;4823517;29;20982;-69
2022/09/05 03:43:47;;;;;;;4.50;4.07;;;;;;;18.54;59.35;95523.25;4840672;29;20224;-68
2022/09/05 03:46:41;;;;;;;4.75;4.45;;;;;;;18.54;59.49;95534.72;4803554;29;20767;-63
2022/09/05 03:49:33;;;;;;;4.85;4.38;;;;;;;18.22;60.75;95538.66;4805629;29;20234;-69
2022/09/05 03:52:23;;;;;;;10.73;4.30;;;;;;;18.38;60.37;95533.13;4800322;29;20339;-69
2022/09/05 03:55:10;;;;;;;4.22;3.90;;;;;;;18.39;60.54;95542.78;4804770;29;20249;-69
2022/09/05 03:58:09;;;;;;;5.30;4.88;;;;;;;18.45;60.51;95544.69;4785995;29;20230;-68
2022/09/05 04:00:36;;;;;;;4.90;4.50;;;;;;;18.50;60.18;95547.59;4801067;29;20314;-69
2022/09/05 04:03:14;;;;;;;4.93;4.53;;;;;;;18.30;60.88;95554.53;4801305;29;20276;-67
2022/09/05 04:05:45;;;;;;;5.25;4.63;;;;;;;18.37;60.44;95549.28;4822534;29;20235;-67
2022/09/05 04:08:23;;;;;;;5.10;4.70;;;;;;;18.50;59.94;95555.59;4855333;29;20656;-69
2022/09/05 04:11:02;;;;;;;5.22;4.82;;;;;;;18.41;60.22;95551.38;4854760;29;20219;-67
2022/09/05 04:13:36;;;;;;;6.03;4.72;;;;;;;18.47;60.28;95555.13;4854904;29;20260;-68
2022/09/05 04:16:08;;;;;;;5.50;5.10;;;;;;;18.50;60.28;95566.25;4844344;29;20251;-63
2022/09/05 04:18:39;;;;;;;4.70;4.38;;;;;;;18.44;60.48;95563.50;4899668;29;20741;-63
2022/09/05 04:21:20;;;;;;;5.43;4.53;;;;;;;18.41;60.40;95567.34;5009867;28;20223;-61
2022/09/05 04:24:18;;;;;;;5.22;4.82;;;;;;;18.42;60.32;95566.34;5008931;28;20234;-68
2022/09/05 04:26:56;;;;;;;5.50;5.00;;;;;;;18.49;60.13;95580.56;4945010;28;20340;-69
2022/09/05 04:29:36;;;;;;;5.55;5.10;;;;;;;18.48;60.32;95578.09;4968530;28;20253;-66
2022/09/05 04:32:33;;;;;;;6.38;5.40;;;;;;;18.53;60.04;95581.03;4952905;28;20228;-67
2022/09/05 04:35:24;;;;;;;5.93;5.35;;;;;;;18.57;60.02;95589.47;4950210;28;20287;-68
2022/09/05 04:38:11;;;;;;;5.82;5.20;;;;;;;18.55;60.25;95580.81;4947547;28;20258;-71
2022/09/05 04:40:47;;;;;;;7.25;5.55;;;;;;;18.60;59.93;95589.91;4954377;28;20556;-64
2022/09/05 04:43:33;;;;;;;6.20;5.70;;;;;;;18.62;60.07;95595.03;4954076;28;20774;-69
2022/09/05 04:46:26;;;;;;;5.53;5.03;;;;;;;18.62;60.00;95595.03;4961368;28;20232;-63
2022/09/05 04:49:01;;;;;;;6.97;5.40;;;;;;;18.66;59.85;95599.00;4946667;28;20719;-67
2022/09/05 04:51:53;;;;;;;5.32;5.00;;;;;;;18.64;60.31;95606.34;4949071;28;20228;-70
2022/09/05 04:54:39;;;;;;;6.57;6.00;;;;;;;18.68;60.66;95602.28;4949572;28;20243;-67
2022/09/05 04:57:07;;;;;;;7.20;6.57;;;;;;;18.71;60.16;95613.41;4951382;28;20221;-69
2022/09/05 05:00:19;;;;;;;6.20;5.60;;;;;;;18.79;60.28;95609.00;4950730;28;20251;-69
2022/09/05 05:02:48;;;;;;;6.53;5.70;;;;;;;18.89;59.47;95612.19;4957276;28;20228;-71
2022/09/05 05:05:21;;;;;;;6.00;5.40;;;;;;;18.90;59.85;95619.19;5008204;28;20213;-64
2022/09/05 05:08:41;;;;;;;5.88;5.28;;;;;;;18.78;59.64;95621.50;5002203;28;20790;-69
2022/09/05 05:11:12;;;;;;;6.57;5.97;;;;;;;18.67;60.99;95629.94;4965264;28;20235;-69
2022/09/05 05:13:45;;;;;;;6.72;6.18;;;;;;;18.87;59.87;95625.72;4962042;28;20303;-70
2022/09/05 05:16:10;;;;;;;7.82;6.20;;;;;;;18.79;60.32;95627.63;4949325;28;20234;-70
2022/09/05 05:18:45;;;;;;;6.78;6.20;;;;;;;18.77;60.67;95630.50;4962404;28;21152;-68
2022/09/05 05:21:18;;;;;;;8.02;6.90;;;;;;;18.88;59.78;95634.53;4933988;28;20307;-66
2022/09/05 05:23:53;;;;;;;7.40;6.60;;;;;;;18.53;61.04;95642.28;4952460;28;20270;-68
2022/09/05 05:26:34;;;;;;;6.65;6.15;;;;;;;18.68;60.66;95647.56;4945661;28;20231;-68
2022/09/05 05:29:44;;;;;;;7.22;6.20;;;;;;;18.87;60.05;95639.03;4944989;28;20216;-66
2022/09/05 05:32:40;;;;;;;7.00;6.40;;;;;;;18.92;59.15;95654.44;4913150;29;20238;-67
2022/09/05 05:35:14;;;;;;;7.25;6.43;;;;;;;19.01;58.96;95649.84;4893833;29;20263;-70
2022/09/05 05:37:49;;;;;;;7.20;6.40;;;;;;;19.05;59.05;95651.09;4898004;29;20582;-66
2022/09/05 05:40:14;;;;;;;7.50;6.72;;;;;;;19.05;59.25;95657.25;4897466;29;20276;-70
2022/09/05 05:42:41;;;;;;;7.03;6.43;;;;;;;19.18;58.67;95653.91;4946417;28;20296;-68
2022/09/05 05:45:29;;;;;;;7.40;6.70;;;;;;;19.22;58.55;95659.66;4949436;28;20637;-68
2022/09/05 05:48:05;;;;;;;7.18;6.57;;;;;;;19.22;58.38;95652.53;4938697;28;20232;-65
2022/09/05 05:50:48;;;;;;;6.90;6.40;;;;;;;19.37;57.74;95663.09;4936007;28;20375;-69
2022/09/05 05:53:40;;;;;;;9.82;7.00;;;;;;;19.43;57.76;95654.34;4940493;28;20216;-69
2022/09/05 05:56:11;;;;;;;7.28;6.57;;;;;;;19.37;58.03;95655.94;4932510;28;20726;-64
2022/09/05 05:58:37;;;;;;;9.00;7.30;;;;;;;19.34;58.23;95656.31;4941684;28;20213;-65
2022/09/05 06:01:39;;;;;;;7.38;6.75;;;;;;;19.27;58.47;95657.25;4948462;28;20239;-69
2022/09/05 06:04:38;;;;;;;8.15;7.18;;;;;;;19.46;58.00;95655.78;4949259;28;20256;-68
2022/09/05 06:07:26;;;;;;;8.32;7.63;;;;;;;19.44;57.70;95657.84;4935940;29;20280;-64
2022/09/05 06:10:33;;;;;;;8.35;7.53;;;;;;;19.61;56.76;95660.03;4924463;29;20237;-70
2022/09/05 06:13:14;;;;;;;8.52;6.97;;;;;;;19.71;56.26;95654.41;4926499;29;20991;-67
2022/09/05 06:16:19;;;;;;;8.60;7.75;;;;;;;19.77;56.09;95658.97;4912935;29;21100;-68
2022/09/05 06:18:58;;;;;;;10.23;7.65;;;;;;;19.63;56.83;95656.38;4916042;29;20236;-69
2022/09/05 06:21:42;;;;;;;9.70;7.45;;;;;;;19.53;56.65;95659.34;4929317;29;20229;-69
2022/09/05 06:25:01;;;;;;;7.63;6.60;;;;;;;19.47;56.75;95660.13;4932359;29;20237;-69
2022/09/05 06:27:44;;;;;;;6.60;6.00;;;;;;;19.43;56.89;95656.19;4896546;29;20274;-68
2022/09/05 06:30:18;;;;;;;6.30;5.68;;;;;;;19.42;56.66;95665.22;4896701;29;20245;-70
2022/09/05 06:33:01;;;;;;;6.55;6.05;;;;;;;19.61;56.36;95662.72;4897966;29;20233;-65
2022/09/05 06:35:39;;;;;;;7.18;6.22;;;;;;;19.48;57.75;95664.44;4909156;29;20233;-72
2022/09/05 06:38:26;;;;;;;6.07;5.47;;;;;;;19.77;56.42;95674.16;4902716;29;20238;-69
2022/09/05 06:41:00;;;;;;;6.00;5.10;;;;;;;20.15;54.53;95671.16;4896645;29;20309;-71
2022/09/05 06:43:50;;;;;;;6.50;5.90;;;;;;;20.15;54.67;95687.19;4914651;29;20229;-69
2022/09/05 06:46:22;;;;;;;7.85;6.15;;;;;;;20.27;54.70;95686.44;4908610;28;20238;-68
2022/09/05 06:48:58;;;;;;;5.93;5.40;;;;;;;20.43;53.72;95679.16;4988283;28;20231;-74
2022/09/05 06:52:02;;;;;;;6.32;5.82;;;;;;;20.52;53.22;95685.97;4966210;28;20246;-73
2022/09/05 06:54:36;;;;;;;5.32;4.93;;;;;;;20.36;52.96;95686.28;4970617;28;20295;-71
2022/09/05 06:57:32;;;;;;;6.25;5.57;;;;;;;20.38;53.09;95686.94;4973626;28;20226;-71
2022/09/05 07:00:28;;;;;;;6.82;6.18;;;;;;;20.58;52.43;95685.25;4989692;28;20265;-72
2022/09/05 07:03:09;;;;;;;4.35;3.95;;;;;;;20.79;50.91;95688.81;5008222;28;20565;-70
2022/09/05 07:05:55;;;;;;;5.63;4.32;;;;;;;20.92;50.86;95680.84;5009943;28;20252;-70
2022/09/05 07:08:54;;;;;;;4.97;4.55;;;;;;;20.96;50.89;95674.09;5001130;28;20231;-68
2022/09/05 07:11:29;;;;;;;5.22;4.32;;;;;;;20.66;51.15;95682.41;5010913;28;20252;-68
2022/09/05 07:14:22;;;;;;;4.53;4.13;;;;;;;20.55;51.14;95685.59;5011374;28;20218;-65
2022/09/05 07:16:51;;;;;;;4.43;4.13;;;;;;;20.50;50.45;95671.97;5007421;28;20291;-71
2022/09/05 07:19:32;;;;;;;4.40;4.10;;;;;;;20.40;50.34;95668.88;5007593;28;20227;-67
2022/09/05 07:22:15;;;;;;;5.88;4.63;;;;;;;20.59;50.96;95678.84;5002364;28;20671;-65
2022/09/05 07:24:45;;;;;;;4.68;4.28;;;;;;;20.68;51.12;95672.31;5007591;28;20350;-72
2022/09/05 07:27:37;;;;;;;5.30;4.80;;;;;;;20.74;51.10;95669.88;5026986;28;20737;-71
2022/09/05 07:30:04;;;;;;;7.47;4.53;;;;;;;20.60;51.18;95672.47;5011096;28;20226;-71
2022/09/05 07:32:43;;;;;;;5.15;4.65;;;;;;;20.84;50.52;95670.31;5010416;28;20270;-70
2022/09/05 07:35:20;;;;;;;6.30;5.70;;;;;;;20.84;50.25;95659.63;5007306;28;20203;-70
2022/09/05 07:38:01;;;;;;;6.40;5.80;;;;;;;20.80;50.49;95663.75;5009548;28;20295;-67
2022/09/05 07:40:28;;;;;;;5.20;4.70;;;;;;;20.72;50.69;95667.41;5013378;28;20222;-71
2022/09/05 07:43:08;;;;;;;5.70;5.20;;;;;;;20.92;50.53;95670.16;5015478;28;20211;-67
2022/09/05 07:45:36;;;;;;;5.10;4.43;;;;;;;20.86;50.92;95665.63;5009204;28;20305;-66
2022/09/05 07:48:07;;;;;;;4.68;4.20;;;;;;;20.59;50.40;95664.69;5004470;28;20709;-66
2022/09/05 07:50:48;;;;;;;4.65;3.90;;;;;;;20.57;50.89;95670.22;4998345;28;20230;-72
2022/09/05 07:53:16;;;;;;;4.22;3.90;;;;;;;20.68;49.82;95666.97;5009774;28;20218;-70
2022/09/05 07:55:42;;;;;;;4.68;4.28;;;;;;;20.67;50.37;95659.97;5001611;28;20237;-66
2022/09/05 07:58:13;;;;;;;4.38;3.97;;;;;;;19.98;51.94;95663.44;4995559;28;20258;-72
2022/09/05 08:00:41;;;;;;;6.10;4.15;;;;;;;20.30;51.48;95661.19;5003372;28;20214;-68
2022/09/05 08:03:13;;;;;;;4.03;3.65;;;;;;;20.24;51.04;95665.47;5003996;28;20250;-70
2022/09/05 08:05:54;;;;;;;6.35;3.95;;;;;;;20.31;50.54;95660.16;5011184;28;20246;-69
2022/09/05 08:08:52;;;;;;;4.57;4.18;;;;;;;20.30;50.54;95673.72;5009886;28;20276;-69
2022/09/05 08:11:20;;;;;;;4.03;3.72;;;;;;;20.55;50.82;95674.91;5005390;28;20295;-72
2022/09/05 08:13:55;;;;;;;5.68;3.97;;;;;;;20.52;51.48;95663.78;5011715;28;20214;-73
2022/09/05 08:16:22;;;;;;;4.78;3.90;;;;;;;20.78;50.53;95671.13;5010549;28;20234;-72
2022/09/05 08:19:33;;;;;;;4.72;3.65;;;;;;;21.06;48.35;95668.34;5006892;28;20230;-72
2022/09/05 08:22:02;;;;;;;7.47;4.07;;;;;;;21.34;47.57;95665.53;5005658;28;21305;-74
2022/09/05 08:24:38;;;;;;;5.15;3.67;;;;;;;21.67;46.86;95657.56;5010245;28;20228;-74
2022/09/05 08:27:35;;;;;;;3.67;3.38;;;;;;;21.79;46.92;95668.50;5003948;28;20312;-69
2022/09/05 08:30:06;;;;;;;3.35;3.15;;;;;;;21.91;44.74;95671.38;5003733;28;20223;-67
2022/09/05 08:32:34;;;;;;;3.53;3.22;;;;;;;21.73;45.06;95661.28;5009133;28;20222;-71
2022/09/05 08:35:07;;;;;;;3.30;3.00;;;;;;;21.71;44.84;95669.53;5005982;28;20207;-70
2022/09/05 08:37:34;;;;;;;3.45;3.15;;;;;;;21.63;44.68;95659.03;5006902;28;20199;-71
2022/09/05 08:40:10;;;;;;;3.33;3.13;;;;;;;21.55;45.15;95654.69;5009904;28;20223;-72
2022/09/05 08:42:54;;;;;;;4.75;3.25;;;;;;;21.44;45.64;95666.00;5003385;28;20270;-71
2022/09/05 08:45:39;;;;;;;3.00;2.80;;;;;;;21.27;46.77;95664.69;5003561;28;20234;-66
2022/09/05 08:48:14;;;;;;;3.53;3.13;;;;;;;21.19;46.88;95670.22;5003091;28;20256;-69
2022/09/05 08:51:27;;;;;;;4.53;3.10;;;;;;;21.49;45.41;95668.91;5000922;28;20250;-66
2022/09/05 08:54:04;;;;;;;3.20;3.00;;;;;;;21.84;44.76;95668.72;4950491;28;20263;-64
2022/09/05 08:56:43;;;;;;;3.58;3.28;;;;;;;22.15;44.08;95668.06;4952740;28;20232;-66
2022/09/05 08:59:26;;;;;;;3.60;3.30;;;;;;;22.33;43.69;95667.47;4967437;28;20297;-69
2022/09/05 09:02:13;;;;;;;4.15;3.00;;;;;;;22.10;42.76;95661.69;4951367;28;20205;-68
2022/09/05 09:04:53;;;;;;;4.05;3.40;;;;;;;21.62;44.88;95662.72;4963983;28;20239;-69
2022/09/05 09:07:39;;;;;;;3.33;3.03;;;;;;;21.63;44.54;95652.88;4963653;28;20224;-69
2022/09/05 09:10:23;;;;;;;3.30;3.00;;;;;;;21.72;44.83;95656.97;4945090;28;20236;-64
2022/09/05 09:12:54;;;;;;;4.95;3.30;;;;;;;22.11;43.61;95658.00;4946112;28;20230;-71
2022/09/05 09:15:27;;;;;;;3.47;2.80;;;;;;;22.26;43.71;95658.59;4948312;28;20362;-65
2022/09/05 09:17:54;;;;;;;3.22;2.90;;;;;;;22.38;42.82;95656.94;4952773;28;20247;-65
2022/09/05 09:20:32;;;;;;;12.73;4.05;;;;;;;22.21;43.34;95658.41;4948197;28;20287;-66
2022/09/05 09:23:05;;;;;;;13.07;3.60;;;;;;;22.33;42.76;95664.78;4961913;28;20331;-65
2022/09/05 09:25:45;;;;;;;5.55;3.20;;;;;;;22.76;42.50;95660.75;5000131;28;20289;-66
2022/09/05 09:28:53;;;;;;;5.50;2.85;;;;;;;22.75;40.50;95659.94;5011658;28;20247;-66
2022/09/05 09:31:49;;;;;;;3.05;2.85;;;;;;;22.73;41.36;95656.63;4993376;28;20249;-71
2022/09/05 09:34:28;;;;;;;9.45;8.60;;;;;;;22.76;42.60;95661.56;5005348;28;20246;-73
2022/09/05 09:37:20;;;;;;;3.85;3.22;;;;;;;22.94;42.01;95660.06;5007944;28;21357;-67
2022/09/05 09:39:52;;;;;;;2.97;2.72;;;;;;;23.12;41.82;95654.81;5008221;28;20214;-67
2022/09/05 09:42:35;;;;;;;2.97;2.63;;;;;;;23.15;41.43;95657.09;5010181;28;20222;-68
2022/09/05 09:45:31;;;;;;;3.03;2.83;;;;;;;23.41;39.39;95657.97;5009925;28;20234;-66
2022/09/05 09:48:09;;;;;;;3.33;3.03;;;;;;;23.44;40.81;95660.22;5010823;28;20589;-66
2022/09/05 09:50:56;;;;;;;3.35;2.63;;;;;;;23.38;38.78;95655.72;5009561;28;20652;-68
2022/09/05 09:53:30;;;;;;;2.90;2.70;;;;;;;23.15;40.19;95646.38;5015505;28;20238;-67
2022/09/05 09:56:04;;;;;;;3.63;2.88;;;;;;;23.29;38.23;95647.91;5011395;28;20210;-68
2022/09/05 09:58:38;;;;;;;2.58;2.38;;;;;;;23.62;38.29;95641.50;5007043;28;20232;-68
2022/09/05 10:01:23;;;;;;;2.90;2.70;;;;;;;23.53;38.03;95632.91;5013787;28;20236;-68
2022/09/05 10:03:55;;;;;;;4.32;3.08;;;;;;;23.74;38.79;95637.13;5009840;28;20225;-69
2022/09/05 10:06:45;;;;;;;3.47;3.22;;;;;;;23.98;37.14;95637.34;5007403;28;20241;-69
2022/09/05 10:09:55;;;;;;;2.97;2.78;;;;;;;23.71;37.06;95628.63;5010295;28;20284;-68
2022/09/05 10:12:39;;;;;;;2.80;2.60;;;;;;;23.88;36.70;95626.25;5011750;28;20235;-68
2022/09/05 10:15:24;;;;;;;3.30;3.00;;;;;;;23.99;37.54;95622.84;5011621;28;20236;-68
2022/09/05 10:18:17;;;;;;;3.78;3.17;;;;;;;23.97;39.57;95632.97;5008569;28;20223;-68
2022/09/05 10:21:09;;;;;;;3.60;3.10;;;;;;;24.16;37.71;95629.31;5010194;28;20223;-68
2022/09/05 10:24:07;;;;;;;2.60;2.40;;;;;;;24.27;36.17;95621.53;5005939;28;20231;-69
2022/09/05 10:26:54;;;;;;;3.22;2.63;;;;;;;24.58;36.44;95615.25;5009384;28;20331;-69
2022/09/05 10:29:22;;;;;;;3.33;2.72;;;;;;;24.69;35.38;95610.97;5007688;28;20313;-70
2022/09/05 10:32:04;;;;;;;3.05;2.72;;;;;;;24.70;36.19;95609.91;5011585;28;20287;-69
2022/09/05 10:34:53;;;;;;;3.08;2.50;;;;;;;25.03;34.92;95609.50;5005878;28;20562;-68
2022/09/05 10:37:19;;;;;;;3.50;2.70;;;;;;;25.39;35.51;95602.38;4954706;28;20232;-69
2022/09/05 10:39:50;;;;;;;2.88;2.65;;;;;;;25.42;33.91;95594.69;4967169;28;20224;-69
2022/09/05 10:42:21;;;;;;;4.35;3.70;;;;;;;25.20;34.97;95598.94;4967039;28;20835;-70
2022/09/05 10:45:13;;;;;;;3.00;2.80;;;;;;;25.52;34.07;95602.19;4956047;28;20282;-68
2022/09/05 10:47:56;;;;;;;2.90;2.70;;;;;;;25.73;33.99;95595.44;4948631;28;20245;-71
2022/09/05 10:50:41;;;;;;;3.60;2.80;;;;;;;25.46;34.21;95595.84;4971709;28;20231;-68
2022/09/05 10:53:42;;;;;;;3.10;2.70;;;;;;;25.71;33.60;95597.53;4968174;28;20212;-67
2022/09/05 10:56:13;;;;;;;2.78;2.58;;;;;;;26.09;32.78;95596.28;4951142;28;20344;-66
2022/09/05 10:58:55;;;;;;;2.97;2.65;;;;;;;26.29;32.04;95588.66;4969734;28;20215;-66
2022/09/05 11:01:40;;;;;;;3.28;2.50;;;;;;;26.28;32.13;95600.50;4969781;28;20232;-66
2022/09/05 11:04:27;;;;;;;2.55;2.35;;;;;;;26.31;33.20;95589.25;4952552;28;20278;-67
2022/09/05 11:06:56;;;;;;;3.17;2.72;;;;;;;26.28;32.41;95589.72;4965853;28;20323;-69
2022/09/05 11:09:33;;;;;;;3.33;3.03;;;;;;;26.10;33.74;95589.88;4969142;28;20231;-68
2022/09/05 11:12:12;;;;;;;3.00;2.80;;;;;;;26.23;32.90;95581.53;4969407;28;20270;-69
2022/09/05 11:15:04;;;;;;;2.97;2.78;;;;;;;26.79;33.61;95585.44;5000645;28;20218;-69
2022/09/05 11:17:40;;;;;;;3.53;3.22;;;;;;;26.36;33.31;95578.59;5022599;28;20223;-69
2022/09/05 11:20:20;;;;;;;3.55;3.25;;;;;;;26.18;34.65;95578.72;5006307;28;20218;-68
2022/09/05 11:22:52;;;;;;;2.85;2.65;;;;;;;25.55;34.79;95579.38;5009078;28;20234;-69
2022/09/05 11:25:26;;;;;;;3.17;2.88;;;;;;;25.14;35.92;95576.44;5026671;28;20487;-69
2022/09/05 11:27:53;;;;;;;3.80;3.50;;;;;;;25.27;36.08;95572.75;4999550;28;20223;-68
2022/09/05 11:30:22;;;;;;;3.50;2.78;;;;;;;25.03;36.93;95571.84;5007950;28;20227;-70
2022/09/05 11:32:56;;;;;;;3.45;2.90;;;;;;;24.86;35.51;95577.88;5009752;28;20223;-70
2022/09/05 11:35:24;;;;;;;3.35;3.05;;;;;;;25.72;34.59;95564.19;5011047;28;20234;-70
2022/09/05 11:38:20;;;;;;;3.08;2.80;;;;;;;26.60;33.44;95573.19;5007943;28;20238;-71
2022/09/05 11:41:10;;;;;;;2.92;2.53;;;;;;;26.36;32.32;95564.28;5007198;28;20222;-70
2022/09/05 11:44:17;;;;;;;2.70;2.47;;;;;;;27.30;31.16;95565.88;5009077;28;20234;-70
2022/09/05 11:46:50;;;;;;;2.67;2.20;;;;;;;27.33;31.16;95568.91;5007476;28;20227;-73
2022/09/05 11:49:42;;;;;;;2.63;2.40;;;;;;;27.01;31.22;95561.28;4998435;28;20234;-74
2022/09/05 11:52:51;;;;;;;2.60;2.40;;;;;;;26.75;30.95;95554.56;5008576;28;20228;-68
2022/09/05 11:55:31;;;;;;;2.78;2.58;;;;;;;27.61;30.22;95550.97;5008853;28;20617;-71
2022/09/05 11:58:18;;;;;;;3.17;2.40;;;;;;;27.99;28.79;95558.38;5011853;28;20227;-70
2022/09/05 12:01:08;;;;;;;2.88;2.55;;;;;;;27.83;30.26;95540.31;5009262;28;20587;-67
2022/09/05 12:04:03;;;;;;;3.40;2.70;;;;;;;28.37;30.22;95552.13;5001246;28;20318;-68
2022/09/05 12:06:35;;;;;;;3.60;3.33;;;;;;;28.62;29.75;95548.13;5003795;28;20241;-67
2022/09/05 12:09:25;;;;;;;3.72;3.20;;;;;;;28.99;29.34;95548.28;5003539;28;20223;-66
2022/09/05 12:12:21;;;;;;;3.67;3.30;;;;;;;28.64;29.54;95539.78;5010658;28;20262;-69
2022/09/05 12:14:49;;;;;;;3.58;3.10;;;;;;;28.30;29.73;95543.38;5008188;28;20235;-66
2022/09/05 12:17:42;;;;;;;4.40;2.72;;;;;;;27.91;30.19;95531.78;5007006;28;20206;-68
2022/09/05 12:20:34;;;;;;;3.00;2.78;;;;;;;28.01;29.51;95526.50;5005428;28;20215;-66
2022/09/05 12:23:05;;;;;;;5.28;3.22;;;;;;;28.34;29.68;95527.50;5020825;28;20235;-67
2022/09/05 12:25:49;;;;;;;3.95;2.70;;;;;;;28.25;28.67;95543.31;5009447;28;20268;-66
2022/09/05 12:28:26;;;;;;;5.03;3.08;;;;;;;28.72;28.96;95547.44;5011483;28;20313;-68
2022/09/05 12:31:08;;;;;;;3.17;2.88;;;;;;;28.57;27.83;95546.22;5005012;28;20231;-64
2022/09/05 12:33:35;;;;;;;3.03;2.70;;;;;;;27.87;28.91;95531.44;5007748;28;20338;-66
2022/09/05 12:36:10;;;;;;;3.13;2.92;;;;;;;26.15;31.83;95530.69;5008496;28;20223;-68
2022/09/05 12:39:00;;;;;;;3.47;3.17;;;;;;;26.77;32.48;95533.59;5004931;28;20214;-70
2022/09/05 12:41:36;;;;;;;2.83;2.63;;;;;;;27.87;29.66;95528.72;5009133;28;20305;-70
2022/09/05 12:44:01;;;;;;;3.28;2.80;;;;;;;28.22;30.18;95533.00;5005717;28;20210;-72
2022/09/05 12:46:44;;;;;;;4.43;3.28;;;;;;;29.08;28.47;95534.31;5011849;28;20265;-65